Terminal Aerodrome Forecast
Issued by NWS

Home | Current Version | Previous Version | Text Only | Print | Product List | Glossary On
Versions: 1 2 3 4 5 6 7 8 9 10 11 12 13 14 15 16 17 18 19 20 21 22 23 24 25 26 27 28
000
FTUS43 KAPX 061127
TAFTVC
TAF
KTVC 061127Z 0612/0712 19004KT P6SM SKC
     FM061400 20012G21KT P6SM BKN150
     FM061700 21013G24KT P6SM BKN080
     FM062000 20014G27KT P6SM SCT020 BKN100
     FM062300 22013G24KT P6SM OVC018
     FM070200 23011KT 6SM -SN OVC015=

USA.gov is the U.S. government's official web portal to all federal, state and local government web resources and services.